Time;durP1;ratioP1;P1;durP2;ratioP2;P2;SDS_P1;SDS_P2;PMS_P1;PMS_P2;Temp;Humidity;BMP_temperature;BMP_pressure;BME280_temperature;BME280_humidity;BME280_pressure;Samples;Min_cycle;Max_cycle;Signal;HPM_P1;HPM_P2
2022/01/09 00:00:42;;;;;;;3.00;2.20;;;6.20;92.40;;;;;;5130729;27;20114;-68
2022/01/09 00:03:08;;;;;;;3.67;2.05;;;6.10;92.40;;;;;;5126881;27;20051;-68
2022/01/09 00:05:34;;;;;;;3.42;2.00;;;6.20;92.50;;;;;;5131790;27;20047;-68
2022/01/09 00:08:00;;;;;;;2.35;2.00;;;6.20;92.60;;;;;;5132317;27;20130;-68
2022/01/09 00:10:30;;;;;;;2.95;2.05;;;6.20;92.50;;;;;;5130497;27;20146;-68
2022/01/09 00:12:57;;;;;;;2.20;1.98;;;6.30;92.50;;;;;;5129148;27;20559;-68
2022/01/09 00:15:23;;;;;;;3.28;2.40;;;6.30;92.50;;;;;;5132480;27;20043;-68
2022/01/09 00:17:48;;;;;;;3.63;2.47;;;6.30;92.50;;;;;;5113556;27;20398;-68
2022/01/09 00:20:14;;;;;;;4.40;2.60;;;6.30;92.50;;;;;;5131835;27;20057;-68
2022/01/09 00:22:50;;;;;;;3.53;2.67;;;6.30;92.50;;;;;;5131646;27;20499;-68
2022/01/09 00:25:18;;;;;;;3.92;2.10;;;6.40;92.50;;;;;;5131588;27;20062;-68
2022/01/09 00:27:44;;;;;;;4.25;2.20;;;6.40;92.60;;;;;;5112200;27;20039;-68
2022/01/09 00:30:13;;;;;;;6.07;2.45;;;6.40;92.70;;;;;;5132073;27;20042;-68
2022/01/09 00:32:39;;;;;;;4.97;2.35;;;6.40;92.70;;;;;;5131472;27;20065;-68
2022/01/09 00:35:06;;;;;;;5.28;2.22;;;6.40;92.60;;;;;;5126859;27;20035;-68
2022/01/09 00:37:32;;;;;;;5.25;2.45;;;6.40;92.70;;;;;;5129881;27;20038;-68
2022/01/09 00:39:58;;;;;;;7.53;3.17;;;6.40;92.70;;;;;;5129958;27;20444;-68
2022/01/09 00:42:24;;;;;;;4.70;2.75;;;6.50;92.60;;;;;;5131111;27;20043;-68
2022/01/09 00:44:49;;;;;;;7.45;2.60;;;6.40;92.70;;;;;;5131836;27;20429;-68
2022/01/09 00:47:15;;;;;;;11.60;3.10;;;6.40;92.80;;;;;;5130559;27;20155;-68
2022/01/09 00:49:41;;;;;;;7.60;2.53;;;6.40;92.80;;;;;;5131986;27;20043;-68
2022/01/09 00:52:07;;;;;;;5.30;2.55;;;6.40;92.90;;;;;;5113551;27;20042;-68
2022/01/09 00:54:32;;;;;;;7.40;3.05;;;6.40;92.80;;;;;;5131003;27;20423;-68
2022/01/09 00:56:58;;;;;;;8.13;3.03;;;6.40;92.90;;;;;;5130418;27;20070;-68
2022/01/09 00:59:24;;;;;;;8.80;3.33;;;6.40;92.80;;;;;;5130832;27;20590;-68
2022/01/09 01:01:49;;;;;;;12.38;2.60;;;6.40;92.80;;;;;;5130370;27;20043;-68
2022/01/09 01:04:15;;;;;;;7.47;2.38;;;6.50;92.80;;;;;;5130742;27;20038;-68
2022/01/09 01:06:41;;;;;;;13.40;4.07;;;6.50;92.90;;;;;;5130620;27;20053;-68
2022/01/09 01:09:06;;;;;;;8.40;2.50;;;6.40;92.90;;;;;;5127769;27;20051;-68
2022/01/09 01:11:32;;;;;;;11.50;2.40;;;6.40;93.00;;;;;;5130727;27;20038;-68
2022/01/09 01:13:58;;;;;;;12.60;2.88;;;6.50;92.90;;;;;;5131445;27;20502;-68
2022/01/09 01:16:23;;;;;;;9.02;2.60;;;6.40;93.00;;;;;;5130975;27;20517;-67
2022/01/09 01:18:49;;;;;;;14.98;3.53;;;6.40;93.10;;;;;;5113005;27;20043;-68
2022/01/09 01:21:15;;;;;;;15.65;2.58;;;6.40;93.00;;;;;;5130916;27;20134;-69
2022/01/09 01:23:41;;;;;;;19.00;3.88;;;6.40;93.30;;;;;;5129594;27;20117;-68
2022/01/09 01:26:07;;;;;;;15.63;2.90;;;6.40;93.30;;;;;;5129852;27;20543;-68
2022/01/09 01:28:33;;;;;;;16.80;3.03;;;6.40;93.30;;;;;;5130097;27;20105;-67
2022/01/09 01:30:58;;;;;;;18.35;3.22;;;6.40;93.50;;;;;;5130052;27;20985;-68
2022/01/09 01:33:24;;;;;;;19.42;3.63;;;6.40;93.40;;;;;;5129916;27;20043;-68
2022/01/09 01:35:51;;;;;;;13.18;3.20;;;6.40;93.40;;;;;;5130272;27;20035;-68
2022/01/09 01:38:17;;;;;;;16.20;2.67;;;6.40;93.30;;;;;;5129881;27;20122;-68
2022/01/09 01:40:42;;;;;;;24.08;5.18;;;6.40;93.40;;;;;;5111863;27;20047;-67
2022/01/09 01:43:08;;;;;;;18.65;3.33;;;6.40;93.60;;;;;;5129832;27;20487;-68
2022/01/09 01:45:34;;;;;;;22.77;4.57;;;6.40;93.50;;;;;;5129491;27;20051;-68
2022/01/09 01:48:05;;;;;;;30.27;3.83;;;6.40;93.50;;;;;;5128976;27;20391;-67
2022/01/09 01:50:36;;;;;;;27.60;4.82;;;6.40;93.50;;;;;;5112619;27;20805;-68
2022/01/09 01:53:08;;;;;;;22.92;4.50;;;6.40;93.50;;;;;;5111057;27;20051;-68
2022/01/09 01:55:38;;;;;;;28.73;4.63;;;6.40;93.60;;;;;;5129840;27;20491;-69
2022/01/09 01:58:05;;;;;;;24.08;5.25;;;6.40;93.50;;;;;;5111466;27;20043;-66
2022/01/09 02:00:32;;;;;;;31.55;5.50;;;6.40;93.50;;;;;;5111320;27;20045;-68
2022/01/09 02:02:58;;;;;;;29.58;4.47;;;6.50;93.50;;;;;;5128572;27;20065;-68
2022/01/09 02:05:24;;;;;;;33.20;5.28;;;6.50;93.40;;;;;;5129988;27;20087;-69
2022/01/09 02:07:51;;;;;;;30.98;5.60;;;6.50;93.40;;;;;;5129623;27;20043;-68
2022/01/09 02:10:17;;;;;;;37.58;5.75;;;6.60;93.30;;;;;;5129713;27;20043;-68
2022/01/09 02:12:43;;;;;;;43.60;6.18;;;6.50;93.30;;;;;;5128887;27;20095;-68
2022/01/09 02:15:25;;;;;;;38.40;5.93;;;6.60;93.30;;;;;;5129719;27;20058;-69
2022/01/09 02:17:50;;;;;;;52.17;7.18;;;6.60;93.10;;;;;;5111496;27;20051;-69
2022/01/09 02:20:16;;;;;;;50.78;10.10;;;6.60;92.80;;;;;;5130002;27;20543;-68
2022/01/09 02:22:41;;;;;;;43.08;6.18;;;6.70;92.70;;;;;;5110664;27;20050;-68
2022/01/09 02:25:07;;;;;;;40.42;7.20;;;6.70;92.40;;;;;;5129557;27;20444;-69
2022/01/09 02:27:33;;;;;;;43.42;6.47;;;6.70;92.10;;;;;;5129455;27;20043;-68
2022/01/09 02:29:59;;;;;;;45.15;7.40;;;6.70;91.70;;;;;;5129335;27;20399;-69
2022/01/09 02:32:24;;;;;;;44.55;7.20;;;6.70;91.60;;;;;;5128520;27;20054;-69
2022/01/09 02:34:50;;;;;;;49.72;8.02;;;6.70;91.30;;;;;;5110998;27;20074;-69
2022/01/09 02:37:16;;;;;;;47.60;7.10;;;6.70;91.60;;;;;;5130034;27;20042;-69
2022/01/09 02:39:42;;;;;;;44.03;6.32;;;6.70;91.50;;;;;;5129469;27;20069;-68
2022/01/09 02:42:23;;;;;;;36.47;6.57;;;6.80;91.10;;;;;;5129208;28;20036;-68
2022/01/09 02:44:49;;;;;;;41.33;6.47;;;6.80;90.70;;;;;;5127730;28;20553;-68
2022/01/09 02:47:15;;;;;;;38.45;5.88;;;6.80;90.60;;;;;;5130087;28;20273;-69
2022/01/09 02:49:46;;;;;;;51.15;8.15;;;6.80;90.50;;;;;;5129465;28;20039;-68
2022/01/09 02:52:25;;;;;;;34.10;5.47;;;6.70;90.50;;;;;;5128429;28;20047;-69
2022/01/09 02:55:11;;;;;;;50.53;7.85;;;6.70;90.60;;;;;;5119525;27;20058;-68
2022/01/09 02:57:42;;;;;;;32.42;6.45;;;6.80;90.70;;;;;;5092628;28;20047;-68
2022/01/09 03:00:11;;;;;;;41.60;7.70;;;6.80;90.50;;;;;;5129158;27;20043;-68
2022/01/09 03:02:36;;;;;;;34.00;5.85;;;6.70;90.50;;;;;;5122978;27;20080;-67
2022/01/09 03:05:03;;;;;;;45.63;8.75;;;6.70;90.30;;;;;;5098574;27;20051;-68
2022/01/09 03:07:29;;;;;;;36.40;5.30;;;6.70;90.20;;;;;;5133939;27;20051;-67
2022/01/09 03:09:54;;;;;;;34.38;5.82;;;6.80;90.00;;;;;;5133508;27;20047;-68
2022/01/09 03:12:20;;;;;;;36.90;5.13;;;6.70;89.90;;;;;;5133553;27;20135;-67
2022/01/09 03:14:46;;;;;;;37.83;7.85;;;6.70;89.80;;;;;;5133222;27;20262;-67
2022/01/09 03:17:12;;;;;;;32.08;5.00;;;6.80;89.80;;;;;;5133031;27;20042;-68
2022/01/09 03:19:37;;;;;;;36.15;5.35;;;6.90;89.60;;;;;;5132373;27;20050;-68
2022/01/09 03:22:03;;;;;;;34.95;5.40;;;6.90;89.70;;;;;;5134004;27;20514;-68
2022/01/09 03:24:29;;;;;;;27.58;5.57;;;6.80;89.50;;;;;;5132488;27;20035;-68
2022/01/09 03:26:55;;;;;;;37.08;4.75;;;6.80;89.50;;;;;;5133291;27;20058;-68
2022/01/09 03:29:20;;;;;;;41.95;7.75;;;6.90;88.60;;;;;;5114915;27;20134;-67
2022/01/09 03:31:46;;;;;;;26.02;4.68;;;6.80;88.60;;;;;;5132439;27;20399;-68
2022/01/09 03:34:11;;;;;;;32.67;5.32;;;6.80;89.00;;;;;;5132392;27;20112;-68
2022/01/09 03:36:37;;;;;;;28.95;4.93;;;6.80;88.80;;;;;;5133586;27;20104;-68
2022/01/09 03:39:03;;;;;;;30.92;5.35;;;6.80;88.90;;;;;;5132673;27;20130;-67
2022/01/09 03:41:28;;;;;;;40.30;7.07;;;6.70;88.50;;;;;;5133428;27;20035;-68
2022/01/09 03:43:54;;;;;;;27.10;4.20;;;6.80;88.40;;;;;;5132261;27;20041;-68
2022/01/09 03:46:20;;;;;;;27.20;4.30;;;6.70;88.40;;;;;;5114136;27;20487;-68
2022/01/09 03:48:45;;;;;;;32.88;5.35;;;6.70;88.10;;;;;;5132530;27;20410;-67
2022/01/09 03:51:11;;;;;;;19.90;4.10;;;6.70;88.50;;;;;;5133479;27;20043;-67
2022/01/09 03:53:38;;;;;;;32.83;6.60;;;6.70;87.90;;;;;;5131896;27;20087;-68
2022/01/09 03:56:04;;;;;;;26.88;4.07;;;6.70;88.10;;;;;;5132208;27;20074;-68
2022/01/09 03:58:29;;;;;;;30.58;4.15;;;6.60;88.30;;;;;;5131972;27;20062;-67
2022/01/09 04:00:55;;;;;;;32.70;4.75;;;6.60;88.20;;;;;;5132815;27;20478;-67
2022/01/09 04:03:20;;;;;;;20.35;4.53;;;6.60;88.30;;;;;;5113359;27;20059;-68
2022/01/09 04:05:46;;;;;;;33.85;6.15;;;6.60;88.20;;;;;;5096454;27;20096;-69
2022/01/09 04:08:12;;;;;;;43.15;5.93;;;6.60;87.60;;;;;;5090186;28;20044;-68
2022/01/09 04:10:41;;;;;;;28.52;5.38;;;6.60;87.90;;;;;;5090094;28;20244;-68
2022/01/09 04:13:10;;;;;;;30.02;5.60;;;6.60;87.90;;;;;;5091027;28;20040;-68
2022/01/09 04:15:35;;;;;;;22.92;4.85;;;6.70;87.80;;;;;;5091018;28;20044;-68
2022/01/09 04:18:02;;;;;;;25.05;4.65;;;6.70;87.40;;;;;;5092039;28;20048;-69
2022/01/09 04:20:29;;;;;;;24.70;4.05;;;6.60;87.30;;;;;;5091021;28;20892;-68
2022/01/09 04:22:56;;;;;;;22.00;5.20;;;6.60;87.20;;;;;;5090862;28;20071;-68
2022/01/09 04:25:22;;;;;;;20.98;3.63;;;6.60;87.40;;;;;;5090737;28;20036;-69
2022/01/09 04:27:49;;;;;;;21.48;3.47;;;6.60;87.50;;;;;;5091002;28;20156;-68
2022/01/09 04:30:15;;;;;;;31.55;5.47;;;6.50;86.80;;;;;;5090521;28;20570;-69
2022/01/09 04:32:41;;;;;;;26.85;5.10;;;6.50;86.90;;;;;;5091223;28;20036;-68
2022/01/09 04:35:07;;;;;;;14.73;2.42;;;6.40;86.80;;;;;;5091025;28;20401;-68
2022/01/09 04:37:34;;;;;;;13.13;2.95;;;6.50;86.30;;;;;;5090834;28;20076;-68
2022/01/09 04:40:00;;;;;;;16.02;3.13;;;6.60;85.70;;;;;;5089880;28;20044;-68
2022/01/09 04:42:38;;;;;;;17.88;3.67;;;6.50;85.50;;;;;;5091306;28;20127;-67
2022/01/09 04:45:04;;;;;;;13.50;2.88;;;6.60;85.60;;;;;;5070372;28;20047;-68
2022/01/09 04:47:30;;;;;;;25.70;5.25;;;6.60;86.10;;;;;;5089622;28;20044;-68
2022/01/09 04:49:55;;;;;;;25.08;4.50;;;6.60;86.40;;;;;;5090538;28;20989;-68
2022/01/09 04:52:26;;;;;;;25.10;3.75;;;6.50;86.90;;;;;;5090790;28;20566;-68
2022/01/09 04:54:51;;;;;;;31.30;3.90;;;6.50;87.00;;;;;;5090945;28;20044;-68
2022/01/09 04:57:17;;;;;;;24.33;4.90;;;6.50;87.20;;;;;;5069903;28;20040;-67
2022/01/09 04:59:43;;;;;;;22.98;3.53;;;6.40;87.30;;;;;;5088595;28;20063;-68
2022/01/09 05:02:08;;;;;;;26.70;3.95;;;6.40;87.30;;;;;;5090307;28;20505;-68
2022/01/09 05:04:34;;;;;;;21.10;4.68;;;6.30;87.70;;;;;;5089458;28;20036;-68
2022/01/09 05:07:00;;;;;;;30.52;4.60;;;6.30;87.80;;;;;;5100588;27;20055;-68
2022/01/09 05:09:25;;;;;;;37.00;5.13;;;6.40;87.90;;;;;;5131515;27;20047;-68
2022/01/09 05:11:51;;;;;;;47.38;7.57;;;6.40;87.80;;;;;;5130301;27;20035;-68
2022/01/09 05:14:16;;;;;;;26.25;3.92;;;6.30;87.80;;;;;;5095870;27;20034;-68
2022/01/09 05:16:44;;;;;;;37.90;5.53;;;6.30;87.90;;;;;;5130734;27;20159;-68
2022/01/09 05:19:17;;;;;;;26.58;4.47;;;6.30;87.80;;;;;;5130848;27;20051;-68
2022/01/09 05:21:44;;;;;;;23.00;3.60;;;6.40;87.80;;;;;;5095815;27;20101;-68
2022/01/09 05:24:09;;;;;;;18.50;2.63;;;6.30;87.40;;;;;;5130003;27;20043;-68
2022/01/09 05:26:35;;;;;;;19.52;2.60;;;6.30;86.90;;;;;;5096185;27;20066;-68
2022/01/09 05:29:01;;;;;;;29.65;4.80;;;6.20;86.80;;;;;;5130072;27;20035;-68
2022/01/09 05:31:27;;;;;;;12.70;4.10;;;6.30;86.80;;;;;;5096756;28;20494;-67
2022/01/09 05:33:52;;;;;;;19.85;3.40;;;6.30;86.80;;;;;;5100924;27;20057;-68
2022/01/09 05:36:18;;;;;;;21.77;3.75;;;6.30;86.70;;;;;;5130923;27;20039;-68
2022/01/09 05:38:44;;;;;;;20.50;3.95;;;6.40;86.90;;;;;;5112642;27;20039;-68
2022/01/09 05:41:09;;;;;;;18.80;4.07;;;6.30;87.20;;;;;;5128992;27;20035;-68
2022/01/09 05:43:36;;;;;;;28.63;5.03;;;6.20;87.60;;;;;;5111588;27;20043;-68
2022/01/09 05:46:01;;;;;;;23.70;4.35;;;6.30;87.80;;;;;;5130382;27;20095;-68
2022/01/09 05:48:27;;;;;;;28.42;3.40;;;6.30;87.80;;;;;;5111997;27;20043;-68
2022/01/09 05:50:53;;;;;;;20.58;4.00;;;6.20;88.00;;;;;;5130137;27;20053;-69
2022/01/09 05:53:18;;;;;;;29.00;5.20;;;6.30;87.90;;;;;;5129850;27;20039;-68
2022/01/09 05:55:44;;;;;;;16.08;3.83;;;6.30;87.80;;;;;;5111853;27;20391;-68
2022/01/09 05:58:09;;;;;;;26.05;3.72;;;6.30;87.70;;;;;;5130597;27;20031;-68
2022/01/09 06:00:35;;;;;;;21.70;3.42;;;6.20;87.60;;;;;;5112123;27;20047;-68
2022/01/09 06:03:01;;;;;;;23.08;4.20;;;6.20;87.60;;;;;;5128785;27;20472;-69
2022/01/09 06:05:26;;;;;;;22.67;5.03;;;6.20;87.40;;;;;;5129719;27;20457;-68
2022/01/09 06:07:52;;;;;;;21.13;3.47;;;6.10;87.20;;;;;;5130101;27;20047;-68
2022/01/09 06:10:18;;;;;;;14.23;2.88;;;6.20;87.30;;;;;;5129239;27;20055;-68
2022/01/09 06:12:43;;;;;;;24.35;5.60;;;6.10;86.70;;;;;;5129427;27;20395;-68
2022/01/09 06:15:09;;;;;;;12.00;2.42;;;6.10;86.90;;;;;;5129946;27;20035;-68
2022/01/09 06:17:40;;;;;;;21.73;3.70;;;6.00;86.90;;;;;;5110402;28;20095;-68
2022/01/09 06:20:07;;;;;;;16.02;3.40;;;6.10;87.00;;;;;;5129593;27;20039;-68
2022/01/09 06:22:33;;;;;;;18.42;3.97;;;6.00;87.20;;;;;;5129748;27;20717;-68
2022/01/09 06:24:58;;;;;;;17.73;5.35;;;6.00;87.00;;;;;;5129553;27;20046;-68
2022/01/09 06:27:24;;;;;;;24.65;3.60;;;5.90;87.10;;;;;;5128713;27;20620;-68
2022/01/09 06:29:50;;;;;;;21.23;3.17;;;5.80;87.20;;;;;;5129496;27;20122;-68
2022/01/09 06:32:16;;;;;;;22.33;3.40;;;5.80;87.50;;;;;;5111748;27;20111;-68
2022/01/09 06:34:41;;;;;;;14.35;2.40;;;5.80;87.50;;;;;;5128162;27;20043;-68
2022/01/09 06:37:10;;;;;;;20.80;4.55;;;5.80;87.50;;;;;;5129343;27;20047;-68
2022/01/09 06:39:36;;;;;;;23.15;6.18;;;5.70;87.60;;;;;;5093577;28;20039;-68
2022/01/09 06:42:02;;;;;;;18.20;4.55;;;5.80;87.60;;;;;;5127114;28;20066;-68
2022/01/09 06:44:28;;;;;;;23.77;2.97;;;5.70;87.70;;;;;;5125786;28;20055;-67
2022/01/09 06:46:53;;;;;;;15.95;3.67;;;5.70;87.80;;;;;;5127959;28;20122;-67
2022/01/09 06:49:19;;;;;;;16.45;2.40;;;5.70;87.70;;;;;;5129748;28;20096;-66
2022/01/09 06:51:44;;;;;;;14.98;2.15;;;5.70;87.80;;;;;;5122864;28;20043;-67
2022/01/09 06:54:10;;;;;;;19.85;2.50;;;5.60;87.80;;;;;;5093311;28;20457;-67
2022/01/09 06:56:36;;;;;;;16.83;3.17;;;5.60;87.90;;;;;;5111648;28;20039;-68
2022/01/09 06:59:02;;;;;;;15.50;2.40;;;5.60;87.80;;;;;;5128499;28;20099;-69
2022/01/09 07:01:27;;;;;;;14.70;2.70;;;5.60;87.80;;;;;;5129632;28;20042;-68
2022/01/09 07:03:53;;;;;;;19.73;3.63;;;5.60;87.50;;;;;;5129027;28;20039;-68
2022/01/09 07:06:18;;;;;;;14.38;2.53;;;5.60;87.30;;;;;;5111693;28;20050;-68
2022/01/09 07:08:44;;;;;;;9.50;3.00;;;5.60;87.40;;;;;;5129232;28;20043;-67
2022/01/09 07:11:10;;;;;;;6.85;2.00;;;5.60;87.30;;;;;;5129087;28;20039;-68
2022/01/09 07:13:35;;;;;;;18.55;2.58;;;5.60;87.30;;;;;;5124559;28;20385;-67
2022/01/09 07:16:01;;;;;;;14.50;2.58;;;5.60;87.50;;;;;;5126672;28;20154;-66
2022/01/09 07:18:27;;;;;;;21.75;2.30;;;5.60;87.30;;;;;;5129346;28;20035;-67
2022/01/09 07:20:52;;;;;;;16.17;2.78;;;5.60;87.20;;;;;;5129414;28;20038;-67
2022/01/09 07:23:18;;;;;;;17.50;2.75;;;5.60;87.10;;;;;;5123865;28;20043;-67
2022/01/09 07:25:44;;;;;;;16.27;3.88;;;5.60;87.20;;;;;;5088812;28;20035;-67
2022/01/09 07:28:10;;;;;;;18.92;5.43;;;5.60;86.90;;;;;;5128289;27;20031;-67
2022/01/09 07:30:36;;;;;;;15.20;3.45;;;5.60;86.90;;;;;;5121961;28;20110;-68
2022/01/09 07:33:04;;;;;;;12.15;2.80;;;5.60;86.80;;;;;;5125378;27;20043;-67
2022/01/09 07:35:30;;;;;;;17.08;2.60;;;5.60;86.80;;;;;;5128926;28;20051;-68
2022/01/09 07:37:56;;;;;;;18.58;2.83;;;5.60;87.10;;;;;;5129184;27;20499;-67
2022/01/09 07:40:23;;;;;;;13.63;2.65;;;5.60;87.40;;;;;;5127496;28;20054;-68
2022/01/09 07:42:49;;;;;;;23.13;4.13;;;5.70;87.50;;;;;;5129337;28;20047;-67
2022/01/09 07:45:16;;;;;;;20.10;2.92;;;5.60;88.20;;;;;;5109700;28;20514;-67
2022/01/09 07:47:42;;;;;;;17.17;3.17;;;5.70;87.60;;;;;;5095591;27;20058;-68
2022/01/09 07:50:10;;;;;;;15.65;3.88;;;5.70;87.90;;;;;;5126686;27;20043;-67
2022/01/09 07:52:36;;;;;;;19.38;3.45;;;5.70;88.20;;;;;;5130671;27;20054;-68
2022/01/09 07:55:04;;;;;;;20.15;4.20;;;5.70;88.60;;;;;;5132002;27;20035;-67
2022/01/09 07:57:29;;;;;;;29.17;3.45;;;5.60;88.70;;;;;;5120679;27;20041;-67
2022/01/09 07:59:56;;;;;;;23.77;3.35;;;5.60;88.90;;;;;;5095641;27;20617;-67
2022/01/09 08:02:22;;;;;;;29.60;6.32;;;5.70;88.80;;;;;;5112725;27;20088;-67
2022/01/09 08:04:49;;;;;;;21.60;3.63;;;5.60;88.80;;;;;;5127488;27;20034;-67
2022/01/09 08:07:14;;;;;;;17.48;3.40;;;5.60;88.80;;;;;;5131770;27;20055;-67
2022/01/09 08:09:42;;;;;;;19.65;2.95;;;5.60;88.60;;;;;;5107204;27;20046;-66
2022/01/09 08:12:10;;;;;;;14.85;2.65;;;5.60;88.60;;;;;;5130497;27;20130;-67
2022/01/09 08:14:38;;;;;;;15.63;2.67;;;5.50;88.30;;;;;;5131627;27;20427;-67
2022/01/09 08:17:04;;;;;;;19.55;3.60;;;5.40;88.00;;;;;;5131415;27;20047;-67
2022/01/09 08:19:31;;;;;;;15.48;2.55;;;5.50;88.00;;;;;;5132394;27;20043;-67
2022/01/09 08:21:57;;;;;;;8.30;2.13;;;5.40;88.00;;;;;;5130868;27;20130;-67
2022/01/09 08:24:23;;;;;;;16.33;2.63;;;5.40;87.70;;;;;;5130245;27;20049;-67
2022/01/09 08:26:49;;;;;;;12.20;2.03;;;5.30;87.90;;;;;;5130840;27;20391;-67
2022/01/09 08:29:15;;;;;;;18.67;2.75;;;5.30;87.90;;;;;;5130734;27;20452;-67
2022/01/09 08:31:41;;;;;;;15.90;3.38;;;5.30;88.20;;;;;;5113073;27;20061;-67
2022/01/09 08:34:07;;;;;;;16.65;2.75;;;5.20;89.30;;;;;;5101339;27;20054;-67
2022/01/09 08:36:33;;;;;;;10.80;2.28;;;5.30;88.50;;;;;;5131166;27;20395;-66
2022/01/09 08:38:59;;;;;;;10.00;1.73;;;5.40;88.40;;;;;;5130974;27;20043;-66
2022/01/09 08:41:25;;;;;;;9.73;2.30;;;5.30;88.50;;;;;;5131583;27;20551;-64
2022/01/09 08:43:51;;;;;;;8.15;1.63;;;5.30;88.70;;;;;;5131211;27;20053;-68
2022/01/09 08:46:16;;;;;;;10.57;2.10;;;5.20;88.70;;;;;;5131734;27;20074;-68
2022/01/09 08:48:42;;;;;;;17.98;3.13;;;5.30;88.40;;;;;;5089012;28;20040;-67
2022/01/09 08:51:08;;;;;;;17.15;3.58;;;5.20;88.60;;;;;;5119957;27;20039;-67
2022/01/09 08:53:35;;;;;;;17.65;4.90;;;5.20;88.90;;;;;;5106778;27;20051;-67
2022/01/09 08:56:03;;;;;;;20.60;3.70;;;5.20;89.10;;;;;;5131790;27;20054;-67
2022/01/09 08:58:30;;;;;;;11.98;2.17;;;5.30;88.90;;;;;;5122854;27;20031;-66
2022/01/09 09:00:55;;;;;;;15.02;3.53;;;5.30;88.70;;;;;;5111363;27;20403;-68
2022/01/09 09:03:22;;;;;;;16.27;2.85;;;5.30;88.40;;;;;;5094869;27;20049;-68
2022/01/09 09:05:48;;;;;;;13.40;2.13;;;5.40;88.00;;;;;;5131422;27;20050;-68
2022/01/09 09:08:14;;;;;;;12.60;2.58;;;5.30;87.90;;;;;;5130503;27;20399;-68
2022/01/09 09:10:40;;;;;;;7.35;1.77;;;5.40;87.50;;;;;;5112127;27;20503;-68
2022/01/09 09:13:05;;;;;;;8.38;2.10;;;5.40;87.40;;;;;;5111136;28;20035;-68
2022/01/09 09:15:31;;;;;;;6.35;1.92;;;5.30;87.10;;;;;;5111832;27;20145;-68
2022/01/09 09:17:57;;;;;;;9.25;2.75;;;5.30;87.10;;;;;;5111112;28;20408;-68
2022/01/09 09:20:22;;;;;;;9.90;1.83;;;5.30;87.00;;;;;;5110834;28;20134;-68
2022/01/09 09:22:48;;;;;;;7.15;2.10;;;5.40;86.50;;;;;;5110842;28;20516;-68
2022/01/09 09:25:14;;;;;;;11.98;2.30;;;5.30;86.30;;;;;;5129824;27;20068;-68
2022/01/09 09:27:39;;;;;;;11.27;3.35;;;5.30;86.80;;;;;;5130629;27;20046;-66
2022/01/09 09:30:06;;;;;;;11.93;2.63;;;5.30;86.80;;;;;;5129773;27;20056;-69
2022/01/09 09:32:32;;;;;;;7.70;1.83;;;5.30;86.50;;;;;;5111762;27;20407;-69
2022/01/09 09:34:58;;;;;;;13.50;3.80;;;5.30;85.70;;;;;;5131269;27;20035;-68
2022/01/09 09:37:26;;;;;;;13.77;2.50;;;5.30;86.10;;;;;;5130545;27;20377;-69
2022/01/09 09:39:52;;;;;;;5.82;2.00;;;5.40;86.50;;;;;;5125707;27;20047;-68
2022/01/09 09:42:18;;;;;;;12.75;2.53;;;5.40;86.80;;;;;;5131248;27;20463;-68
2022/01/09 09:44:45;;;;;;;14.98;2.72;;;5.50;87.10;;;;;;5131419;27;20084;-69
2022/01/09 09:47:11;;;;;;;13.32;2.25;;;5.60;87.20;;;;;;5125351;27;20601;-69
2022/01/09 09:49:37;;;;;;;9.75;1.85;;;5.70;87.20;;;;;;5130552;27;20047;-69
2022/01/09 09:52:06;;;;;;;13.48;2.60;;;5.70;87.50;;;;;;5119248;27;20576;-73
2022/01/09 09:54:31;;;;;;;10.77;2.50;;;5.70;87.60;;;;;;5129568;27;20047;-66
2022/01/09 09:56:57;;;;;;;11.35;2.50;;;5.70;87.70;;;;;;5094798;27;20057;-67
2022/01/09 09:59:34;;;;;;;12.45;2.20;;;5.70;87.80;;;;;;5126849;27;20127;-67
2022/01/09 10:01:59;;;;;;;9.63;2.65;;;5.70;87.60;;;;;;5124793;27;20828;-68
2022/01/09 10:04:25;;;;;;;14.50;1.95;;;5.70;87.70;;;;;;5109848;28;20044;-67
2022/01/09 10:06:51;;;;;;;17.50;2.55;;;5.70;87.60;;;;;;5123823;27;20095;-68
2022/01/09 10:09:19;;;;;;;22.73;2.92;;;5.70;87.80;;;;;;5112163;27;20051;-67
2022/01/09 10:11:54;;;;;;;13.48;2.22;;;5.70;87.80;;;;;;5130859;27;20106;-68
2022/01/09 10:14:21;;;;;;;9.25;2.17;;;5.70;88.10;;;;;;5123126;27;20560;-68
2022/01/09 10:17:05;;;;;;;15.25;2.72;;;5.70;88.20;;;;;;5109700;28;20494;-67
2022/01/09 10:19:55;;;;;;;13.63;2.45;;;5.70;88.30;;;;;;5130168;27;20039;-67
2022/01/09 10:22:34;;;;;;;17.63;2.50;;;5.70;88.30;;;;;;5108648;28;20047;-68
2022/01/09 10:25:37;;;;;;;18.30;4.32;;;5.80;88.00;;;;;;5117899;27;20035;-67
2022/01/09 10:28:12;;;;;;;13.50;2.30;;;5.80;88.10;;;;;;5126838;27;20050;-67
2022/01/09 10:30:40;;;;;;;17.58;3.45;;;5.90;88.10;;;;;;5110142;28;20564;-68
2022/01/09 10:33:12;;;;;;;11.57;2.47;;;5.90;87.80;;;;;;5109878;28;20047;-67
2022/01/09 10:35:40;;;;;;;14.10;2.03;;;6.00;87.60;;;;;;5123944;27;20370;-67
2022/01/09 10:38:19;;;;;;;10.05;3.53;;;6.10;86.30;;;;;;5111927;27;20069;-67
2022/01/09 10:41:05;;;;;;;13.02;2.20;;;6.10;85.90;;;;;;5125087;27;20465;-67
2022/01/09 10:43:30;;;;;;;8.43;1.70;;;6.10;85.50;;;;;;5128951;27;20130;-68
2022/01/09 10:45:59;;;;;;;10.45;2.00;;;6.00;85.10;;;;;;5129846;27;20472;-68
2022/01/09 10:48:32;;;;;;;7.57;1.65;;;6.20;85.50;;;;;;5109778;28;20054;-67
2022/01/09 10:50:58;;;;;;;5.55;0.93;;;6.20;84.90;;;;;;5093441;28;20130;-67
2022/01/09 10:53:32;;;;;;;6.78;1.60;;;6.20;85.10;;;;;;5108619;28;20047;-66
2022/01/09 10:56:14;;;;;;;10.98;1.60;;;6.30;85.00;;;;;;5128547;28;20043;-67
2022/01/09 10:58:57;;;;;;;10.65;2.13;;;6.40;84.70;;;;;;5111397;28;20412;-68
2022/01/09 11:01:31;;;;;;;11.50;3.00;;;6.40;84.70;;;;;;5129267;28;20043;-68
2022/01/09 11:04:06;;;;;;;17.42;2.58;;;6.60;84.90;;;;;;5123230;28;20042;-67
2022/01/09 11:06:34;;;;;;;18.23;2.72;;;6.60;84.70;;;;;;5108601;28;20527;-68
2022/01/09 11:09:02;;;;;;;14.13;2.45;;;6.60;83.80;;;;;;5128704;27;20055;-69
2022/01/09 11:11:36;;;;;;;10.20;1.55;;;6.60;84.40;;;;;;5126609;27;20051;-68
2022/01/09 11:14:04;;;;;;;8.27;1.55;;;6.70;83.40;;;;;;5122957;28;20086;-68
2022/01/09 11:16:42;;;;;;;8.90;1.83;;;6.90;82.80;;;;;;5128457;28;20039;-68
2022/01/09 11:19:16;;;;;;;13.80;2.33;;;6.90;82.90;;;;;;5123306;28;20047;-69
2022/01/09 11:21:47;;;;;;;17.75;3.08;;;6.90;82.90;;;;;;5129207;27;20449;-68
2022/01/09 11:24:31;;;;;;;11.77;2.42;;;6.80;83.20;;;;;;5129881;27;20039;-69
2022/01/09 11:27:34;;;;;;;10.48;2.20;;;6.90;83.40;;;;;;5133429;27;20139;-69
2022/01/09 11:30:06;;;;;;;16.25;2.50;;;6.90;83.50;;;;;;5133602;27;20418;-69
2022/01/09 11:32:34;;;;;;;;;;;6.70;83.70;;;;;;5133731;27;20050;-70
2022/01/09 11:35:04;;;;;;;11.65;1.90;;;6.60;84.00;;;;;;5128458;27;19923;-69
2022/01/09 11:37:46;;;;;;;7.82;1.80;;;6.60;84.30;;;;;;5111405;27;20408;-70
2022/01/09 11:40:31;;;;;;;8.73;1.10;;;6.60;84.10;;;;;;5133288;27;20514;-69
2022/01/09 11:43:09;;;;;;;8.70;1.80;;;6.50;83.30;;;;;;5133497;27;20047;-67
2022/01/09 11:46:00;;;;;;;9.52;1.88;;;6.40;82.80;;;;;;5132670;27;20058;-69
2022/01/09 11:48:51;;;;;;;11.85;1.83;;;6.40;82.80;;;;;;5123928;27;20055;-70
2022/01/09 11:51:17;;;;;;;12.05;3.03;;;6.40;83.10;;;;;;5089966;27;20051;-69
2022/01/09 11:54:12;;;;;;;12.15;1.55;;;6.40;83.30;;;;;;5130305;27;20035;-69
2022/01/09 11:56:56;;;;;;;4.45;1.65;;;6.50;83.60;;;;;;5089876;27;20147;-69
2022/01/09 11:59:29;;;;;;;10.35;1.50;;;6.70;83.10;;;;;;5132726;27;20074;-69
2022/01/09 12:02:00;;;;;;;7.45;1.48;;;6.70;82.30;;;;;;5119966;27;20055;-69
2022/01/09 12:04:35;;;;;;;8.65;1.73;;;6.70;81.50;;;;;;5116879;27;20118;-70
2022/01/09 12:07:07;;;;;;;7.50;1.27;;;6.70;81.80;;;;;;5128413;27;20126;-69
2022/01/09 12:09:47;;;;;;;4.65;1.05;;;6.60;81.80;;;;;;5126279;27;20046;-70
2022/01/09 12:12:38;;;;;;;4.88;0.77;;;6.60;82.20;;;;;;5112706;27;20158;-69
2022/01/09 12:15:05;;;;;;;1.80;0.50;;;6.60;82.20;;;;;;5130611;27;20089;-70
2022/01/09 12:17:33;;;;;;;5.57;0.95;;;6.60;81.30;;;;;;5128510;27;20039;-70
2022/01/09 12:20:13;;;;;;;2.25;0.70;;;6.60;81.40;;;;;;5122373;27;20083;-70
2022/01/09 12:22:39;;;;;;;2.85;0.82;;;6.60;81.80;;;;;;5130845;27;20198;-70
2022/01/09 12:25:06;;;;;;;6.35;1.13;;;6.50;82.00;;;;;;5111753;27;20510;-68
2022/01/09 12:27:42;;;;;;;5.55;0.93;;;6.50;82.40;;;;;;5124983;27;20047;-70
2022/01/09 12:30:10;;;;;;;5.70;1.00;;;6.40;82.50;;;;;;5118042;27;20597;-70
2022/01/09 12:32:43;;;;;;;4.32;0.95;;;6.30;83.10;;;;;;5086326;27;20054;-69
2022/01/09 12:35:18;;;;;;;2.05;0.73;;;6.20;83.10;;;;;;5129718;27;20534;-69
2022/01/09 12:37:48;;;;;;;4.22;0.90;;;6.20;83.30;;;;;;5121393;27;20054;-68
2022/01/09 12:40:17;;;;;;;4.82;0.85;;;6.10;83.50;;;;;;5130727;27;20501;-67
2022/01/09 12:42:50;;;;;;;8.95;1.60;;;6.20;83.60;;;;;;5120594;27;20043;-69
2022/01/09 12:45:23;;;;;;;5.03;1.25;;;6.20;83.90;;;;;;5121122;27;20056;-69
2022/01/09 12:47:49;;;;;;;10.65;3.30;;;6.20;84.90;;;;;;5130475;27;20096;-69
2022/01/09 12:50:15;;;;;;;12.73;4.10;;;6.20;85.50;;;;;;5129870;27;20047;-68
2022/01/09 12:52:41;;;;;;;14.82;1.67;;;6.10;86.50;;;;;;5130394;27;20069;-70
2022/01/09 12:55:09;;;;;;;7.80;1.63;;;6.30;86.10;;;;;;5108537;27;20042;-69